sensor_id;sensor_type;location;lat;lon;timestamp;P1;durP1;ratioP1;P2;durP2;ratioP2
59366;SDS011;45163;47.690;11.770;2022-12-29T00:01:37;1.60;;;1.20;;
59366;SDS011;45163;47.690;11.770;2022-12-29T00:04:03;1.30;;;1.20;;
59366;SDS011;45163;47.690;11.770;2022-12-29T00:06:30;1.83;;;1.20;;
59366;SDS011;45163;47.690;11.770;2022-12-29T00:08:57;1.67;;;1.20;;
59366;SDS011;45163;47.690;11.770;2022-12-29T00:11:24;1.70;;;1.40;;
59366;SDS011;45163;47.690;11.770;2022-12-29T00:13:52;2.53;;;1.30;;
59366;SDS011;45163;47.690;11.770;2022-12-29T00:16:38;2.20;;;1.40;;
59366;SDS011;45163;47.690;11.770;2022-12-29T00:19:07;1.67;;;1.40;;
59366;SDS011;45163;47.690;11.770;2022-12-29T00:21:53;1.57;;;1.40;;
59366;SDS011;45163;47.690;11.770;2022-12-29T00:24:37;1.40;;;1.30;;
59366;SDS011;45163;47.690;11.770;2022-12-29T00:27:21;1.23;;;1.13;;
59366;SDS011;45163;47.690;11.770;2022-12-29T00:30:13;1.30;;;1.20;;
59366;SDS011;45163;47.690;11.770;2022-12-29T00:33:00;1.30;;;1.20;;
59366;SDS011;45163;47.690;11.770;2022-12-29T00:35:51;1.30;;;1.20;;
59366;SDS011;45163;47.690;11.770;2022-12-29T00:38:19;1.53;;;1.43;;
59366;SDS011;45163;47.690;11.770;2022-12-29T00:41:05;1.57;;;1.37;;
59366;SDS011;45163;47.690;11.770;2022-12-29T00:43:49;1.70;;;1.30;;
59366;SDS011;45163;47.690;11.770;2022-12-29T00:46:33;1.30;;;1.20;;
59366;SDS011;45163;47.690;11.770;2022-12-29T00:49:01;1.30;;;1.20;;
59366;SDS011;45163;47.690;11.770;2022-12-29T00:51:46;1.30;;;1.20;;
59366;SDS011;45163;47.690;11.770;2022-12-29T00:54:13;1.20;;;1.10;;
59366;SDS011;45163;47.690;11.770;2022-12-29T00:56:39;1.53;;;1.20;;
59366;SDS011;45163;47.690;11.770;2022-12-29T00:59:10;1.30;;;1.20;;
59366;SDS011;45163;47.690;11.770;2022-12-29T01:01:37;1.23;;;1.10;;
59366;SDS011;45163;47.690;11.770;2022-12-29T01:04:04;1.10;;;1.00;;
59366;SDS011;45163;47.690;11.770;2022-12-29T01:06:30;1.77;;;1.03;;
59366;SDS011;45163;47.690;11.770;2022-12-29T01:08:57;1.97;;;1.13;;
59366;SDS011;45163;47.690;11.770;2022-12-29T01:11:42;1.37;;;1.20;;
59366;SDS011;45163;47.690;11.770;2022-12-29T01:14:08;2.17;;;1.30;;
59366;SDS011;45163;47.690;11.770;2022-12-29T01:16:34;1.70;;;1.30;;
59366;SDS011;45163;47.690;11.770;2022-12-29T01:19:02;5.77;;;1.60;;
59366;SDS011;45163;47.690;11.770;2022-12-29T01:21:29;1.07;;;0.97;;
59366;SDS011;45163;47.690;11.770;2022-12-29T01:23:55;1.30;;;1.13;;
59366;SDS011;45163;47.690;11.770;2022-12-29T01:26:20;2.10;;;1.27;;
59366;SDS011;45163;47.690;11.770;2022-12-29T01:28:47;1.60;;;1.20;;
59366;SDS011;45163;47.690;11.770;2022-12-29T01:31:14;1.17;;;1.07;;
59366;SDS011;45163;47.690;11.770;2022-12-29T01:33:41;1.73;;;1.30;;
59366;SDS011;45163;47.690;11.770;2022-12-29T01:36:14;1.80;;;1.30;;
59366;SDS011;45163;47.690;11.770;2022-12-29T01:38:41;1.67;;;1.07;;
59366;SDS011;45163;47.690;11.770;2022-12-29T01:41:08;1.50;;;1.20;;
59366;SDS011;45163;47.690;11.770;2022-12-29T01:43:43;1.30;;;1.20;;
59366;SDS011;45163;47.690;11.770;2022-12-29T01:46:15;1.23;;;1.13;;
59366;SDS011;45163;47.690;11.770;2022-12-29T01:48:55;2.00;;;1.37;;
59366;SDS011;45163;47.690;11.770;2022-12-29T01:51:25;2.10;;;1.33;;
59366;SDS011;45163;47.690;11.770;2022-12-29T01:53:55;1.60;;;1.20;;
59366;SDS011;45163;47.690;11.770;2022-12-29T01:56:24;2.43;;;1.50;;
59366;SDS011;45163;47.690;11.770;2022-12-29T01:58:54;1.47;;;1.30;;
59366;SDS011;45163;47.690;11.770;2022-12-29T02:01:26;1.40;;;1.30;;
59366;SDS011;45163;47.690;11.770;2022-12-29T02:03:52;1.73;;;1.30;;
59366;SDS011;45163;47.690;11.770;2022-12-29T02:06:20;1.50;;;1.30;;
59366;SDS011;45163;47.690;11.770;2022-12-29T02:08:50;6.80;;;1.30;;
59366;SDS011;45163;47.690;11.770;2022-12-29T02:11:18;1.90;;;1.37;;
59366;SDS011;45163;47.690;11.770;2022-12-29T02:13:45;3.90;;;1.20;;
59366;SDS011;45163;47.690;11.770;2022-12-29T02:18:51;1.17;;;1.10;;
59366;SDS011;45163;47.690;11.770;2022-12-29T02:38:04;1.50;;;1.40;;
59366;SDS011;45163;47.690;11.770;2022-12-29T02:49:13;2.70;;;1.40;;
59366;SDS011;45163;47.690;11.770;2022-12-29T02:54:16;1.53;;;1.33;;
59366;SDS011;45163;47.690;11.770;2022-12-29T02:57:02;3.23;;;1.33;;
59366;SDS011;45163;47.690;11.770;2022-12-29T02:59:28;1.60;;;1.40;;
59366;SDS011;45163;47.690;11.770;2022-12-29T03:15:59;1.60;;;1.37;;
59366;SDS011;45163;47.690;11.770;2022-12-29T03:18:34;2.73;;;1.60;;
59366;SDS011;45163;47.690;11.770;2022-12-29T03:23:47;1.50;;;1.40;;
59366;SDS011;45163;47.690;11.770;2022-12-29T03:26:16;1.30;;;1.20;;
59366;SDS011;45163;47.690;11.770;2022-12-29T03:28:53;1.80;;;1.43;;
59366;SDS011;45163;47.690;11.770;2022-12-29T03:31:22;2.00;;;1.47;;
59366;SDS011;45163;47.690;11.770;2022-12-29T03:33:49;1.73;;;1.30;;
59366;SDS011;45163;47.690;11.770;2022-12-29T03:36:20;2.23;;;1.53;;
59366;SDS011;45163;47.690;11.770;2022-12-29T03:38:57;1.70;;;1.40;;
59366;SDS011;45163;47.690;11.770;2022-12-29T03:41:28;1.63;;;1.50;;
59366;SDS011;45163;47.690;11.770;2022-12-29T03:43:57;1.53;;;1.37;;
59366;SDS011;45163;47.690;11.770;2022-12-29T03:46:23;1.57;;;1.40;;
59366;SDS011;45163;47.690;11.770;2022-12-29T03:48:49;3.20;;;1.50;;
59366;SDS011;45163;47.690;11.770;2022-12-29T03:51:15;1.80;;;1.50;;
59366;SDS011;45163;47.690;11.770;2022-12-29T03:53:41;1.87;;;1.57;;
59366;SDS011;45163;47.690;11.770;2022-12-29T03:56:07;1.60;;;1.40;;
59366;SDS011;45163;47.690;11.770;2022-12-29T03:58:33;1.40;;;1.30;;
59366;SDS011;45163;47.690;11.770;2022-12-29T04:00:59;1.60;;;1.50;;
59366;SDS011;45163;47.690;11.770;2022-12-29T04:03:25;1.60;;;1.50;;
59366;SDS011;45163;47.690;11.770;2022-12-29T04:05:51;2.00;;;1.67;;
59366;SDS011;45163;47.690;11.770;2022-12-29T04:08:17;1.70;;;1.53;;
59366;SDS011;45163;47.690;11.770;2022-12-29T04:10:43;1.93;;;1.53;;
59366;SDS011;45163;47.690;11.770;2022-12-29T04:13:09;1.50;;;1.30;;
59366;SDS011;45163;47.690;11.770;2022-12-29T04:15:35;1.27;;;1.17;;
59366;SDS011;45163;47.690;11.770;2022-12-29T04:18:01;2.03;;;1.53;;
59366;SDS011;45163;47.690;11.770;2022-12-29T04:20:27;1.50;;;1.40;;
59366;SDS011;45163;47.690;11.770;2022-12-29T04:23:12;1.70;;;1.50;;
59366;SDS011;45163;47.690;11.770;2022-12-29T04:25:38;3.37;;;1.90;;
59366;SDS011;45163;47.690;11.770;2022-12-29T04:28:03;2.10;;;1.70;;
59366;SDS011;45163;47.690;11.770;2022-12-29T04:30:29;2.13;;;1.87;;
59366;SDS011;45163;47.690;11.770;2022-12-29T04:32:55;2.07;;;1.57;;
59366;SDS011;45163;47.690;11.770;2022-12-29T04:35:21;2.47;;;2.03;;
59366;SDS011;45163;47.690;11.770;2022-12-29T04:38:00;2.43;;;1.57;;
59366;SDS011;45163;47.690;11.770;2022-12-29T04:40:26;1.70;;;1.33;;
59366;SDS011;45163;47.690;11.770;2022-12-29T04:42:52;3.07;;;1.70;;
59366;SDS011;45163;47.690;11.770;2022-12-29T04:45:18;1.90;;;1.43;;
59366;SDS011;45163;47.690;11.770;2022-12-29T04:47:44;2.43;;;1.70;;
59366;SDS011;45163;47.690;11.770;2022-12-29T04:50:10;1.70;;;1.60;;
59366;SDS011;45163;47.690;11.770;2022-12-29T04:52:36;1.93;;;1.67;;
59366;SDS011;45163;47.690;11.770;2022-12-29T04:55:02;4.60;;;1.90;;
59366;SDS011;45163;47.690;11.770;2022-12-29T04:57:29;2.87;;;1.77;;
59366;SDS011;45163;47.690;11.770;2022-12-29T04:59:55;1.97;;;1.73;;
59366;SDS011;45163;47.690;11.770;2022-12-29T05:02:21;1.80;;;1.50;;
59366;SDS011;45163;47.690;11.770;2022-12-29T05:04:47;4.03;;;1.47;;
59366;SDS011;45163;47.690;11.770;2022-12-29T05:07:13;1.97;;;1.60;;
59366;SDS011;45163;47.690;11.770;2022-12-29T05:09:39;1.90;;;1.50;;
59366;SDS011;45163;47.690;11.770;2022-12-29T05:12:05;1.60;;;1.50;;
59366;SDS011;45163;47.690;11.770;2022-12-29T05:14:31;1.87;;;1.40;;
59366;SDS011;45163;47.690;11.770;2022-12-29T05:16:57;2.13;;;1.50;;
59366;SDS011;45163;47.690;11.770;2022-12-29T05:19:23;2.10;;;1.53;;
59366;SDS011;45163;47.690;11.770;2022-12-29T05:21:49;1.40;;;1.30;;
59366;SDS011;45163;47.690;11.770;2022-12-29T05:24:15;2.13;;;1.57;;
59366;SDS011;45163;47.690;11.770;2022-12-29T05:26:41;2.40;;;1.53;;
59366;SDS011;45163;47.690;11.770;2022-12-29T05:29:07;1.60;;;1.50;;
59366;SDS011;45163;47.690;11.770;2022-12-29T05:31:33;1.70;;;1.43;;
59366;SDS011;45163;47.690;11.770;2022-12-29T05:34:01;1.73;;;1.60;;
59366;SDS011;45163;47.690;11.770;2022-12-29T05:36:27;1.83;;;1.40;;
59366;SDS011;45163;47.690;11.770;2022-12-29T05:38:53;1.77;;;1.50;;
59366;SDS011;45163;47.690;11.770;2022-12-29T05:41:19;3.43;;;1.80;;
59366;SDS011;45163;47.690;11.770;2022-12-29T05:43:45;1.90;;;1.60;;
59366;SDS011;45163;47.690;11.770;2022-12-29T05:46:11;2.40;;;1.60;;
59366;SDS011;45163;47.690;11.770;2022-12-29T05:48:37;1.57;;;1.47;;
59366;SDS011;45163;47.690;11.770;2022-12-29T05:51:03;2.33;;;1.50;;
59366;SDS011;45163;47.690;11.770;2022-12-29T05:53:29;2.03;;;1.50;;
59366;SDS011;45163;47.690;11.770;2022-12-29T05:55:55;1.67;;;1.57;;
59366;SDS011;45163;47.690;11.770;2022-12-29T05:58:21;2.13;;;1.43;;
59366;SDS011;45163;47.690;11.770;2022-12-29T06:00:47;1.40;;;1.30;;
59366;SDS011;45163;47.690;11.770;2022-12-29T06:03:12;3.20;;;1.67;;
59366;SDS011;45163;47.690;11.770;2022-12-29T06:05:38;1.70;;;1.40;;
59366;SDS011;45163;47.690;11.770;2022-12-29T06:08:04;1.67;;;1.40;;
59366;SDS011;45163;47.690;11.770;2022-12-29T06:10:30;3.57;;;1.40;;
59366;SDS011;45163;47.690;11.770;2022-12-29T06:12:56;2.80;;;1.60;;
59366;SDS011;45163;47.690;11.770;2022-12-29T06:15:22;1.90;;;1.70;;
59366;SDS011;45163;47.690;11.770;2022-12-29T06:17:48;2.07;;;1.50;;
59366;SDS011;45163;47.690;11.770;2022-12-29T06:20:14;1.40;;;1.30;;
59366;SDS011;45163;47.690;11.770;2022-12-29T06:22:40;2.90;;;1.83;;
59366;SDS011;45163;47.690;11.770;2022-12-29T06:25:06;1.60;;;1.50;;
59366;SDS011;45163;47.690;11.770;2022-12-29T06:27:33;2.57;;;1.60;;
59366;SDS011;45163;47.690;11.770;2022-12-29T06:29:59;2.90;;;1.70;;
59366;SDS011;45163;47.690;11.770;2022-12-29T06:32:26;2.10;;;1.83;;
59366;SDS011;45163;47.690;11.770;2022-12-29T06:34:51;2.40;;;1.70;;
59366;SDS011;45163;47.690;11.770;2022-12-29T06:37:17;1.63;;;1.50;;
59366;SDS011;45163;47.690;11.770;2022-12-29T06:39:43;2.40;;;1.50;;
59366;SDS011;45163;47.690;11.770;2022-12-29T06:42:09;3.20;;;1.90;;
59366;SDS011;45163;47.690;11.770;2022-12-29T06:44:35;2.50;;;2.10;;
59366;SDS011;45163;47.690;11.770;2022-12-29T06:47:01;1.83;;;1.57;;
59366;SDS011;45163;47.690;11.770;2022-12-29T06:49:27;1.87;;;1.67;;
59366;SDS011;45163;47.690;11.770;2022-12-29T06:51:53;2.27;;;1.60;;
59366;SDS011;45163;47.690;11.770;2022-12-29T06:54:19;2.73;;;1.80;;
59366;SDS011;45163;47.690;11.770;2022-12-29T06:56:45;2.57;;;1.90;;
59366;SDS011;45163;47.690;11.770;2022-12-29T06:59:11;3.20;;;2.00;;
59366;SDS011;45163;47.690;11.770;2022-12-29T07:01:37;2.10;;;1.77;;
59366;SDS011;45163;47.690;11.770;2022-12-29T07:04:03;2.43;;;1.63;;
59366;SDS011;45163;47.690;11.770;2022-12-29T07:06:29;3.80;;;2.30;;
59366;SDS011;45163;47.690;11.770;2022-12-29T07:08:55;2.97;;;1.73;;
59366;SDS011;45163;47.690;11.770;2022-12-29T07:11:22;5.63;;;1.80;;
59366;SDS011;45163;47.690;11.770;2022-12-29T07:13:49;1.60;;;1.50;;
59366;SDS011;45163;47.690;11.770;2022-12-29T07:16:15;2.07;;;1.60;;
59366;SDS011;45163;47.690;11.770;2022-12-29T07:18:41;3.07;;;1.90;;
59366;SDS011;45163;47.690;11.770;2022-12-29T07:21:07;1.77;;;1.53;;
59366;SDS011;45163;47.690;11.770;2022-12-29T07:23:33;3.10;;;1.83;;
59366;SDS011;45163;47.690;11.770;2022-12-29T07:26:00;3.00;;;2.07;;
59366;SDS011;45163;47.690;11.770;2022-12-29T07:28:31;2.70;;;2.03;;
59366;SDS011;45163;47.690;11.770;2022-12-29T07:30:58;1.93;;;1.70;;
59366;SDS011;45163;47.690;11.770;2022-12-29T07:33:24;1.87;;;1.50;;
59366;SDS011;45163;47.690;11.770;2022-12-29T07:35:51;2.90;;;1.90;;
59366;SDS011;45163;47.690;11.770;2022-12-29T07:38:17;3.67;;;1.80;;
59366;SDS011;45163;47.690;11.770;2022-12-29T07:40:43;2.23;;;1.80;;
59366;SDS011;45163;47.690;11.770;2022-12-29T07:43:09;3.03;;;2.00;;
59366;SDS011;45163;47.690;11.770;2022-12-29T07:45:34;2.80;;;1.80;;
59366;SDS011;45163;47.690;11.770;2022-12-29T07:48:00;4.83;;;1.77;;
59366;SDS011;45163;47.690;11.770;2022-12-29T07:50:28;2.87;;;1.97;;
59366;SDS011;45163;47.690;11.770;2022-12-29T07:52:54;2.20;;;1.70;;
59366;SDS011;45163;47.690;11.770;2022-12-29T07:55:20;1.87;;;1.67;;
59366;SDS011;45163;47.690;11.770;2022-12-29T07:57:46;2.37;;;1.93;;
59366;SDS011;45163;47.690;11.770;2022-12-29T08:00:12;2.97;;;2.27;;
59366;SDS011;45163;47.690;11.770;2022-12-29T08:02:38;3.10;;;2.60;;
59366;SDS011;45163;47.690;11.770;2022-12-29T08:05:04;3.83;;;2.00;;
59366;SDS011;45163;47.690;11.770;2022-12-29T08:07:31;1.90;;;1.70;;
59366;SDS011;45163;47.690;11.770;2022-12-29T08:09:57;2.87;;;2.00;;
59366;SDS011;45163;47.690;11.770;2022-12-29T08:12:23;2.43;;;1.80;;
59366;SDS011;45163;47.690;11.770;2022-12-29T08:14:49;2.67;;;2.10;;
59366;SDS011;45163;47.690;11.770;2022-12-29T08:17:15;3.10;;;1.77;;
59366;SDS011;45163;47.690;11.770;2022-12-29T08:19:41;3.40;;;1.90;;
59366;SDS011;45163;47.690;11.770;2022-12-29T08:22:08;2.13;;;1.70;;
59366;SDS011;45163;47.690;11.770;2022-12-29T08:24:34;1.60;;;1.50;;
59366;SDS011;45163;47.690;11.770;2022-12-29T08:27:00;2.43;;;1.73;;
59366;SDS011;45163;47.690;11.770;2022-12-29T08:29:26;4.00;;;1.80;;
59366;SDS011;45163;47.690;11.770;2022-12-29T08:31:52;1.70;;;1.57;;
59366;SDS011;45163;47.690;11.770;2022-12-29T08:34:18;2.73;;;1.77;;
59366;SDS011;45163;47.690;11.770;2022-12-29T08:36:44;2.40;;;1.77;;
59366;SDS011;45163;47.690;11.770;2022-12-29T08:39:10;1.63;;;1.50;;
59366;SDS011;45163;47.690;11.770;2022-12-29T08:41:36;1.70;;;1.53;;
59366;SDS011;45163;47.690;11.770;2022-12-29T08:44:02;2.40;;;1.70;;
59366;SDS011;45163;47.690;11.770;2022-12-29T08:46:28;1.73;;;1.57;;
59366;SDS011;45163;47.690;11.770;2022-12-29T08:48:54;5.33;;;1.73;;
59366;SDS011;45163;47.690;11.770;2022-12-29T08:51:20;2.73;;;1.73;;
59366;SDS011;45163;47.690;11.770;2022-12-29T08:53:46;2.17;;;1.80;;
59366;SDS011;45163;47.690;11.770;2022-12-29T08:56:12;2.93;;;1.97;;
59366;SDS011;45163;47.690;11.770;2022-12-29T08:58:38;2.40;;;2.00;;
59366;SDS011;45163;47.690;11.770;2022-12-29T09:01:04;5.70;;;2.10;;
59366;SDS011;45163;47.690;11.770;2022-12-29T09:03:30;1.77;;;1.63;;
59366;SDS011;45163;47.690;11.770;2022-12-29T09:05:56;2.20;;;1.60;;
59366;SDS011;45163;47.690;11.770;2022-12-29T09:08:22;1.80;;;1.47;;
59366;SDS011;45163;47.690;11.770;2022-12-29T09:10:49;4.57;;;2.10;;
59366;SDS011;45163;47.690;11.770;2022-12-29T09:13:15;2.23;;;1.80;;
59366;SDS011;45163;47.690;11.770;2022-12-29T09:15:41;1.90;;;1.60;;
59366;SDS011;45163;47.690;11.770;2022-12-29T09:18:09;3.70;;;1.70;;
59366;SDS011;45163;47.690;11.770;2022-12-29T09:20:36;6.33;;;1.67;;
59366;SDS011;45163;47.690;11.770;2022-12-29T09:23:02;6.63;;;2.10;;
59366;SDS011;45163;47.690;11.770;2022-12-29T09:25:29;7.00;;;2.00;;
59366;SDS011;45163;47.690;11.770;2022-12-29T09:27:55;11.33;;;2.70;;
59366;SDS011;45163;47.690;11.770;2022-12-29T09:30:21;3.23;;;2.30;;
59366;SDS011;45163;47.690;11.770;2022-12-29T09:32:48;6.77;;;2.37;;
59366;SDS011;45163;47.690;11.770;2022-12-29T09:35:15;7.07;;;3.10;;
59366;SDS011;45163;47.690;11.770;2022-12-29T09:37:42;4.57;;;3.30;;
59366;SDS011;45163;47.690;11.770;2022-12-29T09:40:26;11.47;;;3.20;;
59366;SDS011;45163;47.690;11.770;2022-12-29T09:43:01;8.47;;;3.50;;
59366;SDS011;45163;47.690;11.770;2022-12-29T09:45:43;5.67;;;4.30;;
59366;SDS011;45163;47.690;11.770;2022-12-29T09:48:16;10.03;;;4.30;;
59366;SDS011;45163;47.690;11.770;2022-12-29T09:50:47;6.47;;;4.47;;
59366;SDS011;45163;47.690;11.770;2022-12-29T09:53:23;9.47;;;2.40;;
59366;SDS011;45163;47.690;11.770;2022-12-29T09:55:57;8.07;;;4.37;;
59366;SDS011;45163;47.690;11.770;2022-12-29T09:58:30;8.97;;;4.23;;
59366;SDS011;45163;47.690;11.770;2022-12-29T10:01:05;5.20;;;3.37;;
59366;SDS011;45163;47.690;11.770;2022-12-29T10:08:50;11.13;;;4.77;;
59366;SDS011;45163;47.690;11.770;2022-12-29T10:25:33;3.97;;;2.77;;
59366;SDS011;45163;47.690;11.770;2022-12-29T10:28:05;6.57;;;2.57;;
59366;SDS011;45163;47.690;11.770;2022-12-29T10:30:42;21.07;;;3.80;;
59366;SDS011;45163;47.690;11.770;2022-12-29T10:33:11;10.20;;;3.00;;
59366;SDS011;45163;47.690;11.770;2022-12-29T10:35:44;6.80;;;3.23;;
59366;SDS011;45163;47.690;11.770;2022-12-29T10:38:15;2.63;;;2.03;;
59366;SDS011;45163;47.690;11.770;2022-12-29T10:43:27;9.80;;;2.97;;
59366;SDS011;45163;47.690;11.770;2022-12-29T10:46:06;21.20;;;3.33;;
59366;SDS011;45163;47.690;11.770;2022-12-29T10:48:36;6.00;;;2.47;;
59366;SDS011;45163;47.690;11.770;2022-12-29T10:51:04;11.00;;;3.13;;
59366;SDS011;45163;47.690;11.770;2022-12-29T10:53:36;6.23;;;2.80;;
59366;SDS011;45163;47.690;11.770;2022-12-29T10:56:11;7.20;;;2.27;;
59366;SDS011;45163;47.690;11.770;2022-12-29T10:59:03;5.73;;;2.30;;
59366;SDS011;45163;47.690;11.770;2022-12-29T11:01:41;4.87;;;2.63;;
59366;SDS011;45163;47.690;11.770;2022-12-29T11:07:19;6.07;;;3.00;;
59366;SDS011;45163;47.690;11.770;2022-12-29T11:09:46;6.27;;;3.07;;
59366;SDS011;45163;47.690;11.770;2022-12-29T11:12:19;4.10;;;2.60;;
59366;SDS011;45163;47.690;11.770;2022-12-29T11:22:51;3.63;;;2.33;;
59366;SDS011;45163;47.690;11.770;2022-12-29T11:25:18;3.23;;;1.70;;
59366;SDS011;45163;47.690;11.770;2022-12-29T11:28:00;3.53;;;1.93;;
59366;SDS011;45163;47.690;11.770;2022-12-29T11:30:30;2.70;;;2.30;;
59366;SDS011;45163;47.690;11.770;2022-12-29T11:32:57;3.27;;;2.30;;
59366;SDS011;45163;47.690;11.770;2022-12-29T11:35:38;6.57;;;2.63;;
59366;SDS011;45163;47.690;11.770;2022-12-29T11:38:16;7.00;;;2.07;;
59366;SDS011;45163;47.690;11.770;2022-12-29T11:40:46;6.23;;;2.87;;
59366;SDS011;45163;47.690;11.770;2022-12-29T11:45:59;6.27;;;1.77;;
59366;SDS011;45163;47.690;11.770;2022-12-29T11:48:29;4.70;;;1.70;;
59366;SDS011;45163;47.690;11.770;2022-12-29T11:51:03;4.23;;;2.00;;
59366;SDS011;45163;47.690;11.770;2022-12-29T11:55:59;1.70;;;1.50;;
59366;SDS011;45163;47.690;11.770;2022-12-29T11:58:32;9.13;;;2.10;;
59366;SDS011;45163;47.690;11.770;2022-12-29T12:01:00;2.30;;;1.70;;
59366;SDS011;45163;47.690;11.770;2022-12-29T12:04:07;2.13;;;1.60;;
59366;SDS011;45163;47.690;11.770;2022-12-29T12:06:41;1.90;;;1.60;;
59366;SDS011;45163;47.690;11.770;2022-12-29T12:09:16;2.80;;;1.83;;
59366;SDS011;45163;47.690;11.770;2022-12-29T12:11:51;4.57;;;1.80;;
59366;SDS011;45163;47.690;11.770;2022-12-29T12:17:04;2.30;;;1.80;;
59366;SDS011;45163;47.690;11.770;2022-12-29T12:19:44;1.73;;;1.53;;
59366;SDS011;45163;47.690;11.770;2022-12-29T12:30:50;2.93;;;1.80;;
59366;SDS011;45163;47.690;11.770;2022-12-29T12:41:52;6.43;;;2.10;;
59366;SDS011;45163;47.690;11.770;2022-12-29T12:55:37;2.30;;;1.90;;
59366;SDS011;45163;47.690;11.770;2022-12-29T13:06:22;2.70;;;1.53;;
59366;SDS011;45163;47.690;11.770;2022-12-29T13:09:00;2.00;;;1.80;;
59366;SDS011;45163;47.690;11.770;2022-12-29T13:14:18;5.50;;;1.60;;
59366;SDS011;45163;47.690;11.770;2022-12-29T13:22:11;3.80;;;1.80;;
59366;SDS011;45163;47.690;11.770;2022-12-29T13:30:49;6.20;;;1.90;;
59366;SDS011;45163;47.690;11.770;2022-12-29T13:33:31;5.47;;;1.80;;
59366;SDS011;45163;47.690;11.770;2022-12-29T13:36:00;5.53;;;2.33;;
59366;SDS011;45163;47.690;11.770;2022-12-29T13:41:11;2.93;;;1.70;;
59366;SDS011;45163;47.690;11.770;2022-12-29T13:43:42;3.53;;;1.90;;
59366;SDS011;45163;47.690;11.770;2022-12-29T13:46:13;4.50;;;2.40;;
59366;SDS011;45163;47.690;11.770;2022-12-29T13:54:35;2.80;;;2.00;;
59366;SDS011;45163;47.690;11.770;2022-12-29T14:00:16;2.27;;;1.73;;
59366;SDS011;45163;47.690;11.770;2022-12-29T14:07:43;1.60;;;1.40;;
59366;SDS011;45163;47.690;11.770;2022-12-29T14:13:10;1.93;;;1.70;;
59366;SDS011;45163;47.690;11.770;2022-12-29T14:15:43;1.70;;;1.60;;
59366;SDS011;45163;47.690;11.770;2022-12-29T14:20:46;3.00;;;1.60;;
59366;SDS011;45163;47.690;11.770;2022-12-29T14:23:35;12.53;;;2.00;;
59366;SDS011;45163;47.690;11.770;2022-12-29T14:28:39;6.33;;;1.80;;
59366;SDS011;45163;47.690;11.770;2022-12-29T14:36:33;4.77;;;2.63;;
59366;SDS011;45163;47.690;11.770;2022-12-29T14:39:01;11.27;;;2.80;;
59366;SDS011;45163;47.690;11.770;2022-12-29T14:41:29;4.70;;;3.03;;
59366;SDS011;45163;47.690;11.770;2022-12-29T14:44:03;4.67;;;2.90;;
59366;SDS011;45163;47.690;11.770;2022-12-29T14:47:05;4.03;;;3.03;;
59366;SDS011;45163;47.690;11.770;2022-12-29T14:49:39;6.67;;;2.93;;
59366;SDS011;45163;47.690;11.770;2022-12-29T14:52:13;2.63;;;2.00;;
59366;SDS011;45163;47.690;11.770;2022-12-29T14:54:52;6.93;;;3.93;;
59366;SDS011;45163;47.690;11.770;2022-12-29T14:57:37;7.80;;;2.47;;
59366;SDS011;45163;47.690;11.770;2022-12-29T15:02:54;4.40;;;2.53;;
59366;SDS011;45163;47.690;11.770;2022-12-29T15:06:10;5.47;;;2.33;;
59366;SDS011;45163;47.690;11.770;2022-12-29T15:08:29;9.50;;;2.70;;
59366;SDS011;45163;47.690;11.770;2022-12-29T15:13:37;3.60;;;2.77;;
59366;SDS011;45163;47.690;11.770;2022-12-29T15:16:19;3.20;;;2.30;;
59366;SDS011;45163;47.690;11.770;2022-12-29T15:18:50;3.73;;;2.37;;
59366;SDS011;45163;47.690;11.770;2022-12-29T15:21:24;3.80;;;2.10;;
59366;SDS011;45163;47.690;11.770;2022-12-29T15:23:51;3.80;;;2.00;;
59366;SDS011;45163;47.690;11.770;2022-12-29T15:26:18;8.83;;;2.20;;
59366;SDS011;45163;47.690;11.770;2022-12-29T15:28:50;6.47;;;2.23;;
59366;SDS011;45163;47.690;11.770;2022-12-29T15:33:46;6.10;;;3.03;;
59366;SDS011;45163;47.690;11.770;2022-12-29T15:36:24;6.20;;;3.67;;
59366;SDS011;45163;47.690;11.770;2022-12-29T15:38:51;10.03;;;3.23;;
59366;SDS011;45163;47.690;11.770;2022-12-29T15:41:40;13.90;;;3.73;;
59366;SDS011;45163;47.690;11.770;2022-12-29T15:44:26;9.87;;;3.73;;
59366;SDS011;45163;47.690;11.770;2022-12-29T15:47:01;8.87;;;4.93;;
59366;SDS011;45163;47.690;11.770;2022-12-29T15:49:29;12.67;;;4.73;;
59366;SDS011;45163;47.690;11.770;2022-12-29T15:51:55;8.03;;;3.93;;
59366;SDS011;45163;47.690;11.770;2022-12-29T15:54:21;8.20;;;2.80;;
59366;SDS011;45163;47.690;11.770;2022-12-29T15:56:49;6.90;;;3.37;;
59366;SDS011;45163;47.690;11.770;2022-12-29T15:59:29;6.43;;;3.97;;
59366;SDS011;45163;47.690;11.770;2022-12-29T16:01:57;5.00;;;3.97;;
59366;SDS011;45163;47.690;11.770;2022-12-29T16:04:25;7.27;;;3.73;;
59366;SDS011;45163;47.690;11.770;2022-12-29T16:07:00;4.57;;;2.63;;
59366;SDS011;45163;47.690;11.770;2022-12-29T16:09:32;2.87;;;2.10;;
59366;SDS011;45163;47.690;11.770;2022-12-29T16:12:04;4.30;;;2.20;;
59366;SDS011;45163;47.690;11.770;2022-12-29T16:14:42;3.10;;;2.30;;
59366;SDS011;45163;47.690;11.770;2022-12-29T16:17:12;6.87;;;2.50;;
59366;SDS011;45163;47.690;11.770;2022-12-29T16:19:51;11.10;;;3.30;;
59366;SDS011;45163;47.690;11.770;2022-12-29T16:22:41;7.57;;;4.30;;
59366;SDS011;45163;47.690;11.770;2022-12-29T16:25:15;6.93;;;3.37;;
59366;SDS011;45163;47.690;11.770;2022-12-29T16:27:57;10.50;;;3.47;;
59366;SDS011;45163;47.690;11.770;2022-12-29T16:30:29;3.87;;;2.60;;
59366;SDS011;45163;47.690;11.770;2022-12-29T16:32:58;6.23;;;3.73;;
59366;SDS011;45163;47.690;11.770;2022-12-29T16:35:27;8.77;;;4.20;;
59366;SDS011;45163;47.690;11.770;2022-12-29T16:40:53;5.77;;;3.37;;
59366;SDS011;45163;47.690;11.770;2022-12-29T16:43:21;5.83;;;3.23;;
59366;SDS011;45163;47.690;11.770;2022-12-29T16:48:18;5.67;;;2.97;;
59366;SDS011;45163;47.690;11.770;2022-12-29T16:50:46;7.07;;;3.40;;
59366;SDS011;45163;47.690;11.770;2022-12-29T16:56:02;9.13;;;5.80;;
59366;SDS011;45163;47.690;11.770;2022-12-29T16:58:47;7.10;;;3.90;;
59366;SDS011;45163;47.690;11.770;2022-12-29T17:01:15;6.50;;;4.33;;
59366;SDS011;45163;47.690;11.770;2022-12-29T17:03:54;7.83;;;4.40;;
59366;SDS011;45163;47.690;11.770;2022-12-29T17:06:23;7.20;;;4.07;;
59366;SDS011;45163;47.690;11.770;2022-12-29T17:08:49;6.27;;;4.50;;
59366;SDS011;45163;47.690;11.770;2022-12-29T17:16:43;6.97;;;4.33;;
59366;SDS011;45163;47.690;11.770;2022-12-29T17:19:11;5.60;;;3.90;;
59366;SDS011;45163;47.690;11.770;2022-12-29T17:21:42;6.00;;;4.13;;
59366;SDS011;45163;47.690;11.770;2022-12-29T17:24:13;4.80;;;2.83;;
59366;SDS011;45163;47.690;11.770;2022-12-29T17:26:47;3.93;;;2.93;;
59366;SDS011;45163;47.690;11.770;2022-12-29T17:29:25;6.47;;;4.40;;
59366;SDS011;45163;47.690;11.770;2022-12-29T17:31:56;8.43;;;4.50;;
59366;SDS011;45163;47.690;11.770;2022-12-29T17:34:22;3.33;;;2.60;;
59366;SDS011;45163;47.690;11.770;2022-12-29T17:36:48;3.43;;;2.50;;
59366;SDS011;45163;47.690;11.770;2022-12-29T17:39:15;4.43;;;2.67;;
59366;SDS011;45163;47.690;11.770;2022-12-29T17:41:40;4.73;;;3.30;;
59366;SDS011;45163;47.690;11.770;2022-12-29T17:44:08;4.00;;;2.70;;
59366;SDS011;45163;47.690;11.770;2022-12-29T17:46:41;3.73;;;2.93;;
59366;SDS011;45163;47.690;11.770;2022-12-29T17:49:11;9.17;;;2.80;;
59366;SDS011;45163;47.690;11.770;2022-12-29T17:51:39;4.13;;;3.20;;
59366;SDS011;45163;47.690;11.770;2022-12-29T17:54:20;5.90;;;3.30;;
59366;SDS011;45163;47.690;11.770;2022-12-29T17:56:48;3.73;;;2.83;;
59366;SDS011;45163;47.690;11.770;2022-12-29T17:59:14;4.80;;;3.13;;
59366;SDS011;45163;47.690;11.770;2022-12-29T18:01:41;6.67;;;3.33;;